Time;durP1;ratioP1;P1;durP2;ratioP2;P2;SDS_P1;SDS_P2;PMS_P1;PMS_P2;Temp;Humidity;BMP_temperature;BMP_pressure;BME280_temperature;BME280_humidity;BME280_pressure;Samples;Min_cycle;Max_cycle;Signal;HPM_P1;HPM_P2
2024/02/07 00:03:44;;;;;;;0.40;0.40;;;;;;;8.69;86.37;99406.44;15791722;28;20040;-47
2024/02/07 00:11:19;;;;;;;;;;;;;;;8.62;87.08;99389.66;15796973;28;20085;-48
2024/02/07 00:18:53;;;;;;;0.45;0.45;;;;;;;8.44;88.54;99381.75;15789416;28;20368;-45
2024/02/07 00:26:30;;;;;;;0.00;0.00;;;;;;;8.31;88.95;99361.34;15778314;28;20475;-48
2024/02/07 00:34:04;;;;;;;0.65;0.65;;;;;;;8.47;88.85;99338.50;15784010;28;20074;-49
2024/02/07 00:41:39;;;;;;;0.43;0.38;;;;;;;8.23;89.87;99340.28;15808186;28;20040;-48
2024/02/07 00:49:13;;;;;;;0.20;0.20;;;;;;;8.26;89.52;99318.47;15823736;28;20093;-48
2024/02/07 00:56:48;;;;;;;0.45;0.38;;;;;;;8.15;89.54;99290.66;15814512;28;20206;-47
2024/02/07 01:04:21;;;;;;;0.00;0.00;;;;;;;8.29;89.62;99285.09;15789489;28;20052;-49
2024/02/07 01:11:59;;;;;;;0.30;0.30;;;;;;;8.29;90.00;99279.75;15806776;28;20276;-45
2024/02/07 01:19:43;;;;;;;0.22;0.22;;;;;;;8.28;90.00;99270.91;15821435;28;20048;-50
2024/02/07 01:27:23;;;;;;;0.00;0.00;;;;;;;8.38;90.16;99276.53;15817458;22;20577;-45
2024/02/07 01:34:56;;;;;;;0.20;0.20;;;;;;;8.26;90.67;99273.03;15787481;28;20062;-47
2024/02/07 01:42:32;;;;;;;0.00;0.00;;;;;;;8.52;90.60;99352.00;15797952;28;20059;-50
2024/02/07 01:50:07;;;;;;;0.70;0.70;;;;;;;8.03;89.98;99374.53;15789905;28;20094;-42
2024/02/07 01:57:44;;;;;;;0.00;0.00;;;;;;;7.59;89.17;99380.00;15799605;28;20059;-44
2024/02/07 02:05:18;;;;;;;0.00;0.00;;;;;;;6.81;87.99;99393.16;15783740;28;20075;-46
2024/02/07 02:12:53;;;;;;;;;;;;;;;6.35;87.55;99415.66;15808697;28;20047;-45
2024/02/07 02:20:26;;;;;;;0.00;0.00;;;;;;;6.19;88.05;99400.97;15798834;28;20174;-44
2024/02/07 02:28:17;;;;;;;0.00;0.00;;;;;;;6.19;86.72;99397.50;15775176;28;20047;-44
2024/02/07 02:35:54;;;;;;;0.00;0.00;;;;;;;6.18;87.00;99403.88;15734244;28;20448;-46
2024/02/07 02:43:27;;;;;;;0.00;0.00;;;;;;;5.99;87.40;99417.09;15778335;28;20136;-46
2024/02/07 02:51:04;;;;;;;0.00;0.00;;;;;;;5.59;88.19;99417.22;15777204;28;20040;-47
2024/02/07 02:58:39;;;;;;;0.00;0.00;;;;;;;5.91;86.71;99411.97;15791202;28;20052;-48
2024/02/07 03:06:28;;;;;;;0.00;0.00;;;;;;;5.78;87.63;99420.00;15785489;28;20121;-53
2024/02/07 03:14:05;;;;;;;0.00;0.00;;;;;;;5.69;87.89;99427.44;15787098;28;20134;-48
2024/02/07 03:21:41;;;;;;;0.00;0.00;;;;;;;5.55;87.89;99423.19;15795259;28;20524;-45
2024/02/07 03:29:17;;;;;;;0.00;0.00;;;;;;;5.79;86.54;99432.31;15790223;28;20048;-44
2024/02/07 03:36:55;;;;;;;0.00;0.00;;;;;;;5.32;86.66;99423.66;15786548;28;20044;-50
2024/02/07 03:44:30;;;;;;;0.17;0.17;;;;;;;5.51;86.52;99430.78;15807735;28;20044;-48
2024/02/07 03:52:07;;;;;;;0.00;0.00;;;;;;;5.19;86.55;99437.81;15795301;28;20086;-48
2024/02/07 03:59:41;;;;;;;0.00;0.00;;;;;;;4.81;85.37;99450.94;15783464;28;20496;-45
2024/02/07 04:07:17;;;;;;;0.00;0.00;;;;;;;4.43;86.08;99448.84;15783464;28;20072;-48
2024/02/07 05:17:38;;;;;;;0.00;0.00;;;;;;;3.21;86.11;99499.94;15785985;28;20048;-49
2024/02/07 05:25:15;;;;;;;4.47;0.75;;;;;;;3.56;86.16;99489.38;15786132;28;20484;-48
2024/02/07 05:32:49;;;;;;;0.00;0.00;;;;;;;3.14;87.09;99495.63;15781471;28;20039;-45
2024/02/07 05:40:27;;;;;;;0.45;0.22;;;;;;;3.01;87.37;99491.84;15779143;28;20043;-49
2024/02/07 05:48:01;;;;;;;0.00;0.00;;;;;;;2.99;87.81;99498.38;15799446;28;20217;-50
2024/02/07 05:55:36;;;;;;;0.00;0.00;;;;;;;3.05;87.87;99490.44;15799113;28;20093;-45
2024/02/07 06:03:12;;;;;;;0.00;0.00;;;;;;;2.91;87.78;99499.31;15787678;28;20049;-46
2024/02/07 06:10:47;;;;;;;;;;;;;;;3.10;87.96;99502.31;15780908;28;20066;-47
2024/02/07 06:18:20;;;;;;;0.00;0.00;;;;;;;3.00;87.62;99495.50;15800371;28;19920;-48
2024/02/07 06:25:55;;;;;;;;;;;;;;;3.17;87.54;99506.66;15799796;28;20040;-47
2024/02/07 06:33:29;;;;;;;0.00;0.00;;;;;;;2.96;88.45;99501.38;15799933;28;19919;-50
2024/02/07 06:41:04;;;;;;;;;;;;;;;3.16;87.81;99504.19;15799328;28;20132;-45
2024/02/07 06:48:39;;;;;;;0.00;0.00;;;;;;;3.05;87.40;99509.00;15794673;28;19928;-44
2024/02/07 06:56:15;;;;;;;0.00;0.00;;;;;;;3.20;87.02;99522.16;15778803;28;20071;-47
2024/02/07 07:03:51;;;;;;;0.00;0.00;;;;;;;3.39;87.41;99533.94;15766046;28;20044;-48
2024/02/07 07:11:27;;;;;;;0.00;0.00;;;;;;;3.38;87.20;99540.25;15795687;28;20048;-46
2024/02/07 07:19:01;;;;;;;0.00;0.00;;;;;;;3.46;86.73;99544.59;15793957;28;20128;-46
2024/02/07 07:26:36;;;;;;;0.00;0.00;;;;;;;3.45;86.26;99540.28;15760851;28;20427;-46
2024/02/07 07:34:10;;;;;;;0.00;0.00;;;;;;;3.38;87.50;99558.81;15849037;22;20097;-47
2024/02/07 07:41:44;;;;;;;0.00;0.00;;;;;;;3.26;87.93;99555.03;15833097;28;20062;-51
2024/02/07 07:49:20;;;;;;;0.00;0.00;;;;;;;3.38;87.29;99569.44;15831520;28;20496;-44
2024/02/07 07:56:57;;;;;;;0.10;0.10;;;;;;;3.32;87.63;99571.03;15847710;28;20063;-45
2024/02/07 08:04:33;;;;;;;0.20;0.20;;;;;;;3.50;86.99;99572.41;15842932;28;20059;-48
2024/02/07 08:12:08;;;;;;;0.00;0.00;;;;;;;3.40;87.03;99551.47;15853938;28;20071;-49
2024/02/07 08:19:42;;;;;;;0.00;0.00;;;;;;;3.68;85.71;99579.84;15847429;28;20123;-47
2024/02/07 08:27:17;;;;;;;0.00;0.00;;;;;;;3.72;86.16;99594.38;15832812;28;20035;-49
2024/02/07 08:34:50;;;;;;;1.98;1.85;;;;;;;3.68;86.42;99598.41;15827743;28;20290;-50
2024/02/07 08:42:25;;;;;;;;;;;;;;;3.83;85.57;99612.44;15814798;28;20054;-50
2024/02/07 08:49:59;;;;;;;0.00;0.00;;;;;;;3.77;85.51;99591.94;15824575;28;19935;-47
2024/02/07 08:57:33;;;;;;;0.10;0.10;;;;;;;4.12;84.75;99624.66;15828906;28;20035;-49
2024/02/07 09:05:08;;;;;;;3.20;0.90;;;;;;;3.87;85.44;99623.44;15838390;28;20329;-50
2024/02/07 09:12:43;;;;;;;0.00;0.00;;;;;;;4.00;85.30;99621.69;15869930;28;20034;-54
2024/02/07 09:20:17;;;;;;;0.00;0.00;;;;;;;4.20;85.03;99632.47;15849870;28;20121;-49
2024/02/07 09:27:52;;;;;;;0.00;0.00;;;;;;;4.15;85.10;99632.22;15812842;28;20036;-50
2024/02/07 09:35:27;;;;;;;0.00;0.00;;;;;;;4.52;83.83;99649.59;15804955;28;20109;-47
2024/02/07 09:43:04;;;;;;;0.00;0.00;;;;;;;4.25;85.12;99658.44;15807526;28;20032;-50
2024/02/07 09:50:41;;;;;;;0.00;0.00;;;;;;;3.91;84.66;99672.50;15839621;28;20039;-51
2024/02/07 09:58:17;;;;;;;0.00;0.00;;;;;;;3.79;82.99;99683.66;15865571;28;20074;-47
2024/02/07 10:05:53;;;;;;;0.00;0.00;;;;;;;4.18;82.31;99695.56;15846933;28;20069;-53
2024/02/07 10:13:29;;;;;;;0.85;0.73;;;;;;;4.41;80.88;99689.97;15822433;28;20048;-51
2024/02/07 10:21:05;;;;;;;0.00;0.00;;;;;;;4.57;80.16;99705.63;15803800;28;20516;-49
2024/02/07 10:28:40;;;;;;;1.48;1.00;;;;;;;4.47;78.63;99728.22;15798043;28;20044;-51
2024/02/07 10:36:15;;;;;;;0.00;0.00;;;;;;;5.11;78.26;99726.06;15839144;28;20476;-48
2024/02/07 10:43:50;;;;;;;1.42;1.33;;;;;;;5.18;74.08;99730.63;15813175;28;20047;-49
2024/02/07 10:51:29;;;;;;;0.00;0.00;;;;;;;5.00;73.03;99731.97;15851178;28;20442;-51
2024/02/07 10:59:05;;;;;;;0.00;0.00;;;;;;;5.22;72.08;99732.69;15859009;28;20074;-49
2024/02/07 11:06:40;;;;;;;0.00;0.00;;;;;;;5.38;69.10;99739.47;15842923;28;20465;-51
2024/02/07 11:14:16;;;;;;;0.05;0.05;;;;;;;5.66;67.59;99743.81;15826451;28;20044;-51
2024/02/07 11:21:50;;;;;;;1.15;1.08;;;;;;;5.40;67.24;99742.72;15841266;28;20060;-51
2024/02/07 11:29:26;;;;;;;0.10;0.10;;;;;;;5.27;66.59;99748.88;15820188;28;20068;-49
2024/02/07 11:37:05;;;;;;;0.00;0.00;;;;;;;5.61;64.27;99752.41;15801265;28;20287;-51
2024/02/07 11:44:52;;;;;;;0.00;0.00;;;;;;;5.37;63.75;99753.81;15817779;28;20035;-49
2024/02/07 11:52:27;;;;;;;0.00;0.00;;;;;;;5.77;62.29;99769.84;15815626;28;20032;-49
2024/02/07 12:00:03;;;;;;;0.00;0.00;;;;;;;5.49;62.89;99770.81;15804517;28;20040;-50
2024/02/07 12:07:40;;;;;;;0.00;0.00;;;;;;;5.67;63.14;99740.13;15812994;28;20028;-50
2024/02/07 12:15:16;;;;;;;0.00;0.00;;;;;;;6.43;62.19;99779.72;15799995;28;20044;-48
2024/02/07 12:22:49;;;;;;;0.00;0.00;;;;;;;7.06;61.73;99782.66;15796226;28;20044;-50
2024/02/07 12:30:24;;;;;;;0.00;0.00;;;;;;;6.64;58.58;99784.81;15804914;28;20058;-51
2024/02/07 12:38:00;;;;;;;0.00;0.00;;;;;;;6.71;59.41;99793.63;15856003;28;20040;-52
2024/02/07 12:45:36;;;;;;;1.65;0.80;;;;;;;6.39;57.94;99793.47;15808706;28;20160;-48
2024/02/07 12:53:10;;;;;;;2.17;1.75;;;;;;;6.37;57.23;99794.69;15805221;28;20267;-49
2024/02/07 13:00:45;;;;;;;;;;;;;;;6.18;57.66;99809.66;15829734;28;20040;-52
2024/02/07 13:08:18;;;;;;;0.00;0.00;;;;;;;6.36;57.78;99809.88;15807546;28;20117;-50
2024/02/07 13:15:58;;;;;;;0.00;0.00;;;;;;;6.14;55.91;99811.09;15805025;28;20507;-52
2024/02/07 13:23:33;;;;;;;0.00;0.00;;;;;;;6.25;53.97;99838.97;15806250;28;20493;-47
2024/02/07 13:31:09;;;;;;;0.00;0.00;;;;;;;5.94;54.37;99850.22;15795307;28;20047;-50
2024/02/07 13:38:42;;;;;;;0.43;0.43;;;;;;;5.84;54.96;99854.06;15795193;28;20047;-50
2024/02/07 13:46:17;;;;;;;0.00;0.00;;;;;;;6.01;54.22;99856.34;15821678;28;20562;-50
2024/02/07 13:53:53;;;;;;;0.00;0.00;;;;;;;5.98;53.57;99852.28;15865443;28;20058;-51
2024/02/07 14:01:30;;;;;;;0.00;0.00;;;;;;;5.81;54.43;99849.13;15863845;28;20403;-50
2024/02/07 14:09:05;;;;;;;0.10;0.10;;;;;;;6.09;54.63;99870.31;15862346;28;20075;-48
2024/02/07 14:16:41;;;;;;;0.00;0.00;;;;;;;5.35;54.97;99876.38;15866970;28;20047;-49
2024/02/07 14:24:14;;;;;;;0.00;0.00;;;;;;;5.53;55.22;99883.84;15848050;28;20131;-49
2024/02/07 14:31:51;;;;;;;0.00;0.00;;;;;;;5.87;54.62;99874.13;15811026;28;20075;-52
2024/02/07 14:39:28;;;;;;;0.03;0.03;;;;;;;5.49;56.31;99841.84;15799895;28;20416;-48
2024/02/07 14:47:04;;;;;;;0.10;0.10;;;;;;;6.23;55.46;99875.66;15816863;28;20040;-50
2024/02/07 14:54:38;;;;;;;0.00;0.00;;;;;;;6.01;55.51;99878.50;15800188;28;20415;-50
2024/02/07 15:02:18;;;;;;;0.00;0.00;;;;;;;5.73;55.74;99880.44;15800070;28;20101;-52
2024/02/07 15:09:52;;;;;;;0.00;0.00;;;;;;;6.11;55.57;99884.28;15854584;28;20035;-49
2024/02/07 15:17:27;;;;;;;0.00;0.00;;;;;;;5.54;56.24;99895.31;15859279;28;20377;-49
2024/02/07 15:25:01;;;;;;;0.00;0.00;;;;;;;5.30;57.49;99908.09;15834275;28;20067;-48
2024/02/07 15:32:39;;;;;;;0.00;0.00;;;;;;;4.71;58.11;99916.50;15862553;28;20056;-49
2024/02/07 15:40:14;;;;;;;4.85;2.08;;;;;;;4.95;57.67;99917.91;15862123;28;20462;-48
2024/02/07 15:47:50;;;;;;;2.45;1.25;;;;;;;4.76;59.28;99919.41;15813567;28;20044;-51
2024/02/07 15:55:24;;;;;;;0.00;0.00;;;;;;;4.95;59.28;99925.88;15798954;28;20044;-50
2024/02/07 16:03:00;;;;;;;0.00;0.00;;;;;;;4.69;59.66;99936.31;15798191;28;20071;-48
2024/02/07 16:10:34;;;;;;;0.10;0.10;;;;;;;4.52;60.07;99952.53;15855168;28;20156;-48
2024/02/07 16:18:10;;;;;;;7.18;3.00;;;;;;;4.02;61.62;99956.91;15858117;28;20105;-47
2024/02/07 16:25:44;;;;;;;0.03;0.03;;;;;;;4.11;61.37;99968.25;15856849;28;20032;-49
2024/02/07 16:33:19;;;;;;;0.20;0.20;;;;;;;3.95;60.96;99958.66;15858851;28;20073;-48
2024/02/07 16:40:53;;;;;;;0.05;0.05;;;;;;;4.06;61.15;99973.28;15859343;28;20139;-51
2024/02/07 16:48:29;;;;;;;0.13;0.13;;;;;;;4.43;62.29;99974.06;15802819;28;20054;-49
2024/02/07 16:56:04;;;;;;;0.20;0.20;;;;;;;4.44;60.36;99987.19;15794719;28;20040;-48
2024/02/07 17:03:39;;;;;;;0.00;0.00;;;;;;;4.55;61.98;99988.50;15806557;28;20106;-49
2024/02/07 17:11:13;;;;;;;0.20;0.20;;;;;;;4.56;61.79;100001.59;15858631;28;20043;-49
2024/02/07 17:18:48;;;;;;;0.47;0.40;;;;;;;4.29;62.36;100008.50;15846241;28;20179;-50
2024/02/07 17:26:22;;;;;;;0.20;0.20;;;;;;;3.79;62.68;100009.31;15866018;28;20050;-52
2024/02/07 17:33:57;;;;;;;0.10;0.10;;;;;;;3.51;63.02;100009.94;15850543;28;20515;-50
2024/02/07 17:41:31;;;;;;;0.00;0.00;;;;;;;3.72;63.17;100008.38;15858989;28;20547;-49
2024/02/07 17:49:06;;;;;;;0.00;0.00;;;;;;;3.38;64.53;100015.06;15845426;28;20044;-51
2024/02/07 17:56:40;;;;;;;1.02;0.38;;;;;;;3.76;64.39;100014.97;15849936;28;20039;-49
2024/02/07 18:04:17;;;;;;;0.00;0.00;;;;;;;3.82;64.39;100019.53;15860639;28;20473;-50
2024/02/07 18:11:51;;;;;;;0.00;0.00;;;;;;;3.44;66.05;100030.22;15847326;28;20182;-48
2024/02/07 18:19:26;;;;;;;3.63;1.95;;;;;;;3.33;65.89;100025.38;15868084;28;20052;-51
2024/02/07 18:27:00;;;;;;;0.00;0.00;;;;;;;2.78;65.37;99920.50;15864303;28;20130;-49
2024/02/07 18:34:38;;;;;;;0.13;0.13;;;;;;;3.04;66.04;100026.97;15843961;28;20044;-54
2024/02/07 18:42:15;;;;;;;0.00;0.00;;;;;;;2.98;67.50;100027.66;15854397;28;20123;-50
2024/02/07 18:49:50;;;;;;;0.00;0.00;;;;;;;3.16;67.35;100018.56;15845598;28;20043;-50
2024/02/07 18:57:25;;;;;;;0.00;0.00;;;;;;;2.58;69.09;100017.41;15863617;28;20043;-46
2024/02/07 19:05:00;;;;;;;0.05;0.05;;;;;;;2.68;69.15;100012.69;15841472;28;20044;-45
2024/02/07 19:12:33;;;;;;;0.10;0.10;;;;;;;3.16;68.97;100015.91;15863451;28;20082;-46
2024/02/07 19:20:09;;;;;;;;;;;;;;;3.21;68.45;100030.28;15845528;28;20101;-46
2024/02/07 19:27:42;;;;;;;0.50;0.50;;;;;;;3.41;67.55;100035.91;15863686;28;19973;-48
2024/02/07 19:35:18;;;;;;;0.45;0.45;;;;;;;3.10;68.07;100035.22;15861737;28;20290;-48
2024/02/07 19:42:51;;;;;;;0.77;0.65;;;;;;;3.16;67.81;100048.56;15844559;28;20035;-52
2024/02/07 19:50:26;;;;;;;;;;;;;;;3.10;68.43;100038.69;15808057;28;20048;-51
2024/02/07 19:57:59;;;;;;;0.40;0.40;;;;;;;3.19;68.52;100034.13;15812958;28;19920;-50
2024/02/07 20:05:35;;;;;;;0.45;0.45;;;;;;;3.29;68.16;100032.03;15831420;28;20053;-50
2024/02/07 20:13:09;;;;;;;0.47;0.47;;;;;;;3.34;68.58;100037.63;15799218;28;20175;-50
2024/02/07 20:20:44;;;;;;;0.10;0.10;;;;;;;3.27;68.71;100034.06;15816454;28;20044;-52
2024/02/07 20:28:20;;;;;;;0.00;0.00;;;;;;;3.20;68.27;100033.94;15846115;27;20044;-52
2024/02/07 20:35:55;;;;;;;0.10;0.10;;;;;;;3.13;68.08;100029.56;15847180;28;20428;-51
2024/02/07 20:43:30;;;;;;;0.10;0.10;;;;;;;3.01;68.17;100037.91;15802866;28;20543;-50
2024/02/07 20:51:07;;;;;;;0.38;0.38;;;;;;;2.93;68.14;100031.84;15807005;28;20459;-54
2024/02/07 20:58:45;;;;;;;0.00;0.00;;;;;;;2.49;70.11;100027.22;15821014;28;20131;-51
2024/02/07 21:06:27;;;;;;;0.20;0.20;;;;;;;2.48;69.09;100026.41;15840094;28;20316;-51
2024/02/07 21:14:02;;;;;;;0.00;0.00;;;;;;;2.63;68.89;100020.34;15846665;28;20138;-48
2024/02/07 21:21:37;;;;;;;0.32;0.32;;;;;;;2.48;70.25;100026.41;15853245;28;20442;-51
2024/02/07 21:29:11;;;;;;;0.10;0.10;;;;;;;2.33;70.17;100022.00;15811263;28;20125;-50
2024/02/07 21:36:47;;;;;;;0.10;0.10;;;;;;;2.28;70.71;100014.56;15810453;28;20040;-49
2024/02/07 21:44:21;;;;;;;0.10;0.10;;;;;;;2.23;70.95;100016.94;15824925;28;20172;-51
2024/02/07 21:51:58;;;;;;;0.00;0.00;;;;;;;2.06;71.34;100020.69;15842088;28;20048;-48
2024/02/07 21:59:32;;;;;;;0.00;0.00;;;;;;;1.79;72.30;100012.19;15812480;28;20416;-51
2024/02/07 22:07:08;;;;;;;0.20;0.20;;;;;;;2.12;71.73;100012.84;15811877;28;20040;-50
2024/02/07 22:14:42;;;;;;;1.75;1.65;;;;;;;2.07;71.10;100022.31;15803678;28;20032;-48
2024/02/07 22:22:18;;;;;;;0.00;0.00;;;;;;;2.09;70.73;100020.31;15810642;28;20044;-51
2024/02/07 22:29:52;;;;;;;7.50;2.15;;;;;;;1.78;72.27;100016.66;15798434;28;20056;-49
2024/02/07 22:37:30;;;;;;;0.00;0.00;;;;;;;1.85;71.68;100008.00;15841078;28;20088;-50
2024/02/07 22:45:06;;;;;;;0.00;0.00;;;;;;;1.77;71.68;99999.13;15814107;28;20036;-50
2024/02/07 22:52:40;;;;;;;0.00;0.00;;;;;;;1.76;71.20;99994.81;15861282;28;20089;-50
2024/02/07 23:00:17;;;;;;;0.00;0.00;;;;;;;1.34;72.81;99994.28;15860815;28;20097;-49
2024/02/07 23:08:22;;;;;;;0.15;0.15;;;;;;;1.53;72.29;99986.78;15844361;28;20040;-50
2024/02/07 23:16:16;;;;;;;0.00;0.00;;;;;;;1.21;72.90;99993.00;15854415;28;20170;-50
2024/02/07 23:23:51;;;;;;;0.00;0.00;;;;;;;1.32;73.12;99978.59;15794552;28;20122;-51
2024/02/07 23:31:24;;;;;;;0.75;0.75;;;;;;;1.30;72.64;100004.38;15759311;28;1073505;-50
2024/02/07 23:38:59;;;;;;;0.00;0.00;;;;;;;1.18;73.49;100008.38;15809214;28;20345;-52
2024/02/07 23:46:34;;;;;;;0.00;0.00;;;;;;;1.24;72.82;100011.16;15816872;28;20044;-49
2024/02/07 23:54:09;;;;;;;0.00;0.00;;;;;;;1.16;73.37;100011.16;15794298;28;20156;-49
